Terminal Aerodrome Forecast
Issued by NWS

Home | Current Version | Previous Version | Text Only | Print | Product List | Glossary On
Versions: 1 2 3 4 5 6 7 8 9 10 11 12 13 14 15 16
022
FTUS43 KDTX 121850 AAA
TAFDET
TAF AMD
KDET 121850Z 1219/1318 26014G24KT 4SM -SHSN BKN025 OVC035
      TEMPO 1219/1221 1/2SM SN BKN018 OVC022
     FM122100 29016G26KT P6SM -SHSN SCT028 OVC035
      TEMPO 1221/1224 2SM -SHSN BKN028 OVC035
     FM130200 33015G25KT P6SM SCT020 BKN045
     FM130700 32010KT P6SM SCT045
     FM131500 31011G19KT P6SM BKN040=

USA.gov is the U.S. government's official web portal to all federal, state and local government web resources and services.